Time;durP1;ratioP1;P1;durP2;ratioP2;P2;SDS_P1;SDS_P2;PMS_P1;PMS_P2;Temp;Humidity;BMP_temperature;BMP_pressure;BME280_temperature;BME280_humidity;BME280_pressure;Samples;Min_cycle;Max_cycle;Signal;HPM_P1;HPM_P2
2023/08/16 00:10:20;;;;;;;13.55;7.18;;;;;;;28.79;100.00;100747.84;31173216;28;19945;-75
2023/08/16 00:25:22;;;;;;;11.30;7.80;;;;;;;28.49;100.00;100733.28;31201625;28;20057;-76
2023/08/16 00:40:24;;;;;;;9.83;7.13;;;;;;;28.23;100.00;100730.31;31172510;28;20054;-74
2023/08/16 00:55:26;;;;;;;12.70;7.43;;;;;;;28.03;100.00;100723.16;31170213;28;20058;-75
2023/08/16 01:10:58;;;;;;;8.67;6.87;;;;;;;28.08;100.00;100708.41;31148396;28;20061;-75
2023/08/16 01:26:10;;;;;;;9.40;7.30;;;;;;;28.15;100.00;100716.91;31169293;28;20085;-75
2023/08/16 01:41:21;;;;;;;10.97;7.83;;;;;;;28.19;100.00;100709.00;31173535;28;20081;-75
2023/08/16 01:56:23;;;;;;;10.75;7.50;;;;;;;28.29;100.00;100725.41;31162462;28;20351;-74
2023/08/16 02:11:25;;;;;;;9.23;7.53;;;;;;;28.41;100.00;100707.97;31158288;28;20136;-75
2023/08/16 02:26:27;;;;;;;10.77;7.67;;;;;;;28.43;100.00;100705.41;31201921;28;20104;-75
2023/08/16 02:41:29;;;;;;;11.07;7.83;;;;;;;28.43;100.00;100702.63;31192487;28;20106;-75
2023/08/16 02:56:32;;;;;;;10.73;7.57;;;;;;;28.32;100.00;100713.19;31158011;28;20050;-77
2023/08/16 03:11:34;;;;;;;11.63;8.77;;;;;;;28.49;100.00;100711.69;31184834;28;20089;-76
2023/08/16 03:26:36;;;;;;;14.97;9.57;;;;;;;28.71;100.00;100721.78;31163630;28;20077;-76
2023/08/16 03:41:38;;;;;;;12.63;8.77;;;;;;;28.94;100.00;100732.66;31175068;28;20076;-75
2023/08/16 03:56:41;;;;;;;13.83;9.77;;;;;;;29.35;100.00;100741.38;31167984;28;20085;-75
2023/08/16 04:11:43;;;;;;;13.57;9.57;;;;;;;29.74;100.00;100753.97;31167277;28;20142;-75
2023/08/16 04:26:45;;;;;;;17.17;11.53;;;;;;;30.35;100.00;100763.97;31179902;28;20081;-76
2023/08/16 04:41:47;;;;;;;13.07;9.33;;;;;;;30.91;100.00;100759.22;31179925;28;20072;-77
2023/08/16 04:56:49;;;;;;;13.05;8.68;;;;;;;31.53;100.00;100764.84;31155079;28;20057;-76
2023/08/16 05:11:51;;;;;;;9.18;7.10;;;;;;;31.87;98.20;100776.00;31178326;28;20058;-75
2023/08/16 05:26:53;;;;;;;8.52;7.15;;;;;;;32.39;96.00;100783.22;31179216;28;20057;-75
2023/08/16 05:41:56;;;;;;;10.85;7.10;;;;;;;32.95;94.12;100789.25;31150081;28;20057;-76
2023/08/16 05:56:58;;;;;;;12.85;7.38;;;;;;;33.70;87.85;100801.88;31152868;28;20567;-77
2023/08/16 06:12:00;;;;;;;8.63;7.63;;;;;;;34.14;84.35;100797.50;31146720;28;20086;-78
2023/08/16 06:27:02;;;;;;;8.93;6.97;;;;;;;34.79;78.40;100791.28;31128476;28;20484;-77
2023/08/16 06:42:05;;;;;;;7.50;6.70;;;;;;;35.44;72.61;100794.03;31144309;28;20095;-77
2023/08/16 06:57:07;;;;;;;10.77;7.00;;;;;;;36.31;70.57;100792.13;31140782;28;20136;-79
2023/08/16 07:12:09;;;;;;;7.05;6.35;;;;;;;37.24;66.46;100776.88;31178668;28;20533;-77
2023/08/16 07:27:11;;;;;;;9.68;6.18;;;;;;;37.65;62.90;100777.91;31197525;28;20068;-78
2023/08/16 07:42:13;;;;;;;9.32;6.07;;;;;;;38.32;57.15;100767.94;31186455;28;20077;-76
2023/08/16 07:57:15;;;;;;;11.40;6.15;;;;;;;38.71;56.13;100769.41;31155870;28;20133;-77
2023/08/16 08:12:17;;;;;;;7.43;5.45;;;;;;;38.43;54.79;100762.41;31179320;28;20140;-76
2023/08/16 08:27:19;;;;;;;14.90;4.95;;;;;;;39.09;49.51;100767.78;31195328;28;20491;-76
2023/08/16 08:42:22;;;;;;;7.43;4.35;;;;;;;39.29;49.63;100737.94;31173350;28;20054;-79
2023/08/16 08:57:27;;;;;;;7.38;3.47;;;;;;;39.50;46.51;100737.97;31142442;28;20065;-76
2023/08/16 09:12:30;;;;;;;4.82;2.88;;;;;;;40.28;40.90;100731.66;31182221;28;20078;-76
2023/08/16 09:27:33;;;;;;;8.45;2.90;;;;;;;40.64;39.14;100722.56;31147845;28;20060;-76
2023/08/16 09:42:36;;;;;;;12.15;3.30;;;;;;;41.21;37.64;100706.16;31153080;28;20133;-77
2023/08/16 09:57:39;;;;;;;4.07;2.67;;;;;;;41.47;37.31;100702.00;31163599;28;20494;-77
2023/08/16 10:12:42;;;;;;;3.63;2.83;;;;;;;41.66;37.30;100692.41;31161884;28;20495;-77
2023/08/16 10:27:45;;;;;;;4.95;3.17;;;;;;;42.49;35.12;100687.78;31165823;28;20054;-76
2023/08/16 10:42:57;;;;;;;8.55;3.95;;;;;;;42.68;34.04;100683.78;31191004;28;20137;-77
2023/08/16 10:57:59;;;;;;;5.40;3.17;;;;;;;42.98;33.81;100676.09;31190576;28;20076;-76
2023/08/16 11:13:03;;;;;;;25.13;7.00;;;;;;;43.69;32.89;100657.56;31182592;28;20140;-76
2023/08/16 11:28:05;;;;;;;6.30;4.60;;;;;;;43.68;33.08;100635.34;31179089;28;20545;-81
2023/08/16 11:43:07;;;;;;;8.27;3.58;;;;;;;41.95;33.01;100626.34;31182401;28;20056;-77
2023/08/16 11:58:10;;;;;;;5.32;3.55;;;;;;;39.71;35.08;100614.28;31158783;28;20487;-77
2023/08/16 12:13:13;;;;;;;6.00;3.10;;;;;;;38.31;37.06;100607.69;31136246;28;20515;-76
2023/08/16 12:28:15;;;;;;;6.10;4.40;;;;;;;37.78;37.60;100601.09;31196771;28;20046;-76
2023/08/16 12:43:18;;;;;;;4.30;2.95;;;;;;;37.46;38.19;100590.97;31182460;28;20082;-78
2023/08/16 12:58:21;;;;;;;4.30;3.22;;;;;;;37.22;38.35;100582.19;31158167;28;20060;-77
2023/08/16 13:13:23;;;;;;;7.80;3.33;;;;;;;36.83;38.85;100572.88;31155920;28;20054;-78
2023/08/16 13:28:28;;;;;;;4.88;3.13;;;;;;;36.25;40.11;100568.34;31182730;28;20053;-77
2023/08/16 13:43:32;;;;;;;11.20;6.25;;;;;;;35.73;41.21;100557.91;31175780;28;20387;-78
2023/08/16 13:58:39;;;;;;;5.70;3.60;;;;;;;35.46;40.80;100535.28;31165330;28;20069;-77
2023/08/16 14:13:41;;;;;;;4.50;3.28;;;;;;;35.08;42.83;100523.66;31144317;28;20502;-78
2023/08/16 14:28:43;;;;;;;4.18;3.55;;;;;;;35.00;43.32;100514.53;31214741;28;20566;-79
2023/08/16 14:43:45;;;;;;;6.18;3.83;;;;;;;34.74;43.97;100498.97;31170604;28;20085;-80
2023/08/16 15:48:37;;;;;;;7.28;3.67;;;;;;;34.75;49.36;100480.75;31868054;27;20383;-76
2023/08/16 16:03:40;;;;;;;10.85;4.97;;;;;;;34.52;49.41;100492.22;31869499;27;20044;-75
2023/08/16 16:18:54;;;;;;;6.10;4.63;;;;;;;34.28;50.75;100490.16;31858428;27;20079;-74
2023/08/16 16:33:56;;;;;;;12.98;6.80;;;;;;;33.88;50.67;100499.47;31838967;27;20116;-74
2023/08/16 16:48:58;;;;;;;11.52;6.75;;;;;;;33.55;51.80;100512.75;31752724;27;20078;-74
2023/08/16 17:04:00;;;;;;;10.45;6.63;;;;;;;33.07;53.33;100517.59;31715950;27;20078;-74
2023/08/16 17:19:03;;;;;;;10.95;6.05;;;;;;;32.60;55.51;100521.75;31752627;27;20135;-74
2023/08/16 17:34:05;;;;;;;14.23;7.57;;;;;;;32.24;57.89;100527.56;31718811;27;20491;-73
2023/08/16 17:49:07;;;;;;;10.90;7.93;;;;;;;32.04;59.12;100520.75;31739940;27;20400;-75
2023/08/16 18:04:09;;;;;;;12.27;8.02;;;;;;;31.82;60.58;100518.66;31742302;27;20063;-77
2023/08/16 18:19:21;;;;;;;18.88;9.02;;;;;;;31.74;61.99;100515.81;31708329;27;20516;-75
2023/08/16 18:34:25;;;;;;;15.63;8.75;;;;;;;31.47;62.14;100511.75;31731834;27;20060;-74
2023/08/16 18:49:27;;;;;;;9.68;6.88;;;;;;;30.77;67.67;100515.47;31735479;27;20093;-75
2023/08/16 19:04:30;;;;;;;12.23;7.18;;;;;;;30.51;69.77;100510.75;31698561;27;20057;-77
2023/08/16 19:19:32;;;;;;;10.60;6.57;;;;;;;30.21;73.95;100518.16;31676352;27;20117;-82
2023/08/16 19:34:34;;;;;;;9.60;7.07;;;;;;;30.07;76.21;100520.25;31701202;27;20100;-79
2023/08/16 19:49:36;;;;;;;9.00;6.07;;;;;;;30.45;72.59;100512.22;31656258;28;20048;-78
2023/08/16 20:04:39;;;;;;;9.02;5.80;;;;;;;30.29;74.53;100518.97;31716496;27;20056;-79
2023/08/16 20:19:41;;;;;;;15.70;11.73;;;;;;;30.39;72.77;100506.00;31693858;27;20042;-79
2023/08/16 20:34:51;;;;;;;8.27;6.10;;;;;;;30.23;73.42;100515.56;31701684;27;20056;-78
2023/08/16 20:49:54;;;;;;;12.63;7.15;;;;;;;30.12;73.46;100511.72;31740749;27;20432;-77
2023/08/16 21:04:57;;;;;;;11.80;6.63;;;;;;;30.01;73.19;100511.97;31717270;27;20106;-81
2023/08/16 21:19:59;;;;;;;;;;;;;;;29.83;74.49;100507.28;31735581;27;20500;-79
2023/08/16 21:35:01;;;;;;;8.60;5.43;;;;;;;29.82;73.74;100500.19;31728178;27;19996;-80
2023/08/16 21:50:03;;;;;;;6.33;5.33;;;;;;;29.73;74.55;100486.66;31635378;28;20390;-79
2023/08/16 22:05:07;;;;;;;7.47;5.10;;;;;;;29.70;74.85;100474.50;31685078;27;20753;-80
2023/08/16 22:20:11;;;;;;;7.40;6.22;;;;;;;29.50;76.53;100469.63;31678872;27;20086;-78
2023/08/16 22:35:14;;;;;;;10.13;5.65;;;;;;;29.37;78.05;100461.97;31704846;27;20048;-79
2023/08/16 22:50:18;;;;;;;7.80;5.65;;;;;;;29.34;79.47;100474.25;31704885;27;20048;-78
2023/08/16 23:05:20;;;;;;;7.88;5.75;;;;;;;29.17;80.58;100471.06;31682384;27;20059;-78
2023/08/16 23:20:22;;;;;;;7.53;5.70;;;;;;;29.00;82.95;100470.63;31703823;27;20070;-78
2023/08/16 23:35:24;;;;;;;6.80;5.53;;;;;;;29.03;84.94;100469.56;31702260;28;20459;-78
2023/08/16 23:50:26;;;;;;;6.40;5.40;;;;;;;28.94;86.82;100462.34;31669475;28;20051;-78
